Station Historical Data
Daily Summary for May 12, 2017 Units:  English    Metric   Both
« Previous Day
Next Day »
Daily Weekly Monthly Yearly Custom
  High: Low: Average:
Temperature: 81.1 °F 63.4 °F 69.8 °F
Dew Point: 65.6 °F 59.3 °F 62.1 °F
Humidity: 93% 52% 78%
Wind Speed: 1.0mph 0.0mph 0mph
Wind Gust: 7.0mph - -
Wind- - NW
Pressure: 29.90 in 29.75 in -
Precipitation: 0.82 in    
Historical Graphs
 
 
Tabular Data for May 12, 2017
Time Temperature Dew Point Pressure Wind Wind Speed Wind Gust Humidity Rainfall Rate (Hourly) Conditions
00:00 69.2 °F 61.3 °F 29.90 in Calm     76% 0.00 in SCT
00:15 68.8 °F 61.3 °F 29.89 in Calm     77% 0.00 in SCT
00:30 68.7 °F 61.2 °F 29.89 in Calm   1.0 mph 77% 0.00 in SCT
00:45 68.7 °F 61.6 °F 29.89 in Calm   1.0 mph 78% 0.00 in SCT
01:00 69.1 °F 61.6 °F 29.90 in Calm   1.0 mph 77% 0.00 in SCT
01:15 69.5 °F 62.0 °F 29.89 in Calm   1.0 mph 77% 0.00 in SCT
01:45 69.5 °F 61.6 °F 29.89 in Calm   1.0 mph 76% 0.00 in SCT
02:00 69.5 °F 61.6 °F 29.89 in Calm   1.0 mph 76% 0.00 in SCT
02:15 69.3 °F 61.4 °F 29.89 in Calm   1.0 mph 76% 0.00 in SCT
02:30 69.2 °F 61.3 °F 29.89 in Calm   1.0 mph 76% 0.00 in SCT
02:45 68.9 °F 61.4 °F 29.88 in Calm   2.0 mph 77% 0.00 in SCT
03:00 68.5 °F 61.4 °F 29.87 in Calm     78% 0.00 in SCT
03:15 68.2 °F 61.5 °F 29.87 in Calm   1.0 mph 79% 0.00 in SCT
03:30 67.9 °F 61.5 °F 29.87 in Calm   1.0 mph 80% 0.00 in SCT
03:45 66.9 °F 60.5 °F 29.86 in Calm   1.0 mph 80% 0.00 in SCT
04:00 66.9 °F 60.5 °F 29.86 in Calm     80% 0.00 in SCT
04:15 66.9 °F 60.5 °F 29.85 in Calm     80% 0.00 in SCT
04:30 66.9 °F 60.5 °F 29.86 in Calm     80% 0.00 in SCT
04:45 66.9 °F 60.5 °F 29.85 in Calm     80% 0.00 in SCT
05:00 66.9 °F 60.5 °F 29.85 in Calm     80% 0.00 in SCT
05:15 66.9 °F 60.5 °F 29.85 in Calm     80% 0.00 in SCT
05:30 66.9 °F 60.5 °F 29.85 in Calm     80% 0.00 in SCT
05:45 66.9 °F 60.5 °F 29.84 in Calm     80% 0.00 in SCT
06:00 66.9 °F 60.5 °F 29.84 in Calm     80% 0.00 in SCT
06:15 66.9 °F 60.5 °F 29.83 in Calm     80% 0.00 in SCT
06:30 66.9 °F 60.5 °F 29.83 in Calm     80% 0.00 in SCT
06:45 66.9 °F 60.5 °F 29.83 in Calm     80% 0.00 in SCT
07:00 66.9 °F 60.5 °F 29.84 in Calm     80% 0.00 in SCT
07:15 66.9 °F 60.5 °F 29.84 in Calm     80% 0.00 in SCT
07:30 66.9 °F 60.5 °F 29.84 in Calm     80% 0.00 in SCT
07:45 66.9 °F 60.5 °F 29.84 in Calm     80% 0.00 in SCT
08:00 66.9 °F 60.5 °F 29.84 in Calm     80% 0.00 in SCT
08:15 66.9 °F 60.5 °F 29.84 in Calm     80% 0.00 in SCT
08:30 65.5 °F 62.5 °F 29.84 in Calm     90% 0.00 in SCT
08:45 66.4 °F 63.1 °F 29.84 in Calm     89% 0.00 in SCT
09:00 67.1 °F 63.1 °F 29.84 in Calm     87% 0.00 in SCT
09:15 67.9 °F 63.2 °F 29.84 in Calm   2.0 mph 85% 0.00 in SCT
09:30 68.5 °F 63.5 °F 29.84 in Calm   2.0 mph 84% 0.00 in SCT
09:45 68.9 °F 63.5 °F 29.83 in Calm   1.0 mph 83% 0.00 in SCT
10:00 69.1 °F 63.4 °F 29.83 in Calm     82% 0.00 in SCT
10:15 69.5 °F 63.4 °F 29.82 in Calm   1.0 mph 81% 0.00 in SCT
10:30 69.9 °F 63.8 °F 29.83 in Calm   1.0 mph 81% 0.00 in SCT
10:45 70.6 °F 63.8 °F 29.83 in Calm   1.0 mph 79% 0.00 in SCT
11:00 71.6 °F 64.4 °F 29.83 in Calm   2.0 mph 78% 0.00 in SCT
11:15 72.2 °F 64.2 °F 29.83 in Calm   1.0 mph 76% 0.00 in SCT
11:30 73.1 °F 64.7 °F 29.83 in Calm   1.0 mph 75% 0.00 in SCT
11:45 74.2 °F 65.3 °F 29.83 in Calm   2.0 mph 74% 0.00 in SCT
12:00 75.8 °F 65.3 °F 29.83 in Calm   2.0 mph 70% 0.00 in SCT
12:15 76.4 °F 65.0 °F 29.83 in Calm   3.0 mph 68% 0.00 in SCT
12:30 76.8 °F 64.1 °F 29.83 in WNW 1.0 mph 3.0 mph 65% 0.00 in SCT
12:45 78.9 °F 65.6 °F 29.83 in NW 1.0 mph 2.0 mph 64% 0.00 in SCT
13:00 81.1 °F 64.4 °F 29.82 in Calm   2.0 mph 57% 0.00 in SCT
13:15 80.9 °F 61.6 °F 29.82 in Calm   2.0 mph 52% 0.00 in SCT
13:30 80.4 °F 62.2 °F 29.81 in Calm   3.0 mph 54% 0.00 in SCT
13:45 80.7 °F 62.0 °F 29.81 in Calm   2.0 mph 53% 0.00 in SCT
14:00 80.7 °F 63.1 °F 29.80 in Calm   2.0 mph 55% 0.00 in SCT
14:15 79.7 °F 62.1 °F 29.80 in Calm   2.0 mph 55% 0.00 in SCT
14:30 80.4 °F 61.7 °F 29.79 in Calm   3.0 mph 53% 0.00 in SCT
14:45 80.4 °F 62.2 °F 29.78 in Calm   2.0 mph 54% 0.00 in SCT
15:00 80.4 °F 62.2 °F 29.77 in Calm   3.0 mph 54% 0.00 in SCT
15:15 80.3 °F 62.6 °F 29.77 in Calm   1.0 mph 55% 0.00 in SCT
15:30 79.9 °F 62.3 °F 29.77 in Calm     55% 0.00 in SCT
15:45 79.4 °F 62.3 °F 29.76 in Calm   2.0 mph 56% 0.00 in SCT
16:00 79.0 °F 62.5 °F 29.76 in Calm   1.0 mph 57% 0.00 in SCT
16:15 78.7 °F 63.2 °F 29.76 in Calm   1.0 mph 59% 0.00 in SCT
16:30 78.1 °F 63.1 °F 29.77 in Calm   1.0 mph 60% 0.00 in SCT
16:45 77.2 °F 64.1 °F 29.76 in Calm   1.0 mph 64% 0.00 in SCT
17:00 76.7 °F 63.2 °F 29.75 in Calm     63% 0.00 in SCT
17:15 76.4 °F 63.3 °F 29.75 in Calm   1.0 mph 64% 0.00 in SCT
17:30 73.1 °F 59.3 °F 29.77 in Calm   5.0 mph 62% 0.00 in SCT
17:45 67.4 °F 61.1 °F 29.80 in North 1.0 mph 2.0 mph 80% 0.13 in RA
18:00 65.1 °F 61.2 °F 29.80 in Calm   7.0 mph 87% 0.49 in RA
18:15 63.7 °F 60.1 °F 29.79 in Calm   7.0 mph 88% 0.17 in SCT
18:30 63.4 °F 60.4 °F 29.78 in Calm   1.0 mph 90% 0.02 in RA
18:45 63.6 °F 60.9 °F 29.77 in Calm     91% 0.00 in SCT
19:00 63.8 °F 61.1 °F 29.77 in Calm     91% 0.00 in SCT
19:15 64.1 °F 61.7 °F 29.77 in Calm     92% 0.00 in SCT
19:30 64.5 °F 62.1 °F 29.77 in Calm     92% 0.00 in SCT
19:45 64.6 °F 62.2 °F 29.77 in Calm     92% 0.00 in SCT
20:00 64.9 °F 62.5 °F 29.77 in Calm     92% 0.00 in SCT
20:15 64.7 °F 62.4 °F 29.77 in Calm     92% 0.00 in SCT
20:30 64.8 °F 62.4 °F 29.77 in Calm     92% 0.00 in SCT
20:45 64.7 °F 62.4 °F 29.77 in Calm     92% 0.00 in SCT
21:00 64.7 °F 62.4 °F 29.77 in Calm     92% 0.00 in SCT
21:15 64.8 °F 62.4 °F 29.78 in Calm     92% 0.00 in SCT
21:30 64.8 °F 62.4 °F 29.78 in Calm     92% 0.00 in SCT
21:45 64.7 °F 62.3 °F 29.78 in Calm     92% 0.00 in SCT
22:00 64.6 °F 62.2 °F 29.78 in Calm     92% 0.00 in SCT
22:15 64.6 °F 62.2 °F 29.78 in Calm     92% 0.00 in SCT
22:30 64.5 °F 62.4 °F 29.78 in Calm     93% 0.00 in SCT
22:45 64.5 °F 62.4 °F 29.78 in Calm     93% 0.00 in SCT
23:00 64.4 °F 62.3 °F 29.78 in Calm     93% 0.00 in SCT
23:15 64.3 °F 62.2 °F 29.78 in Calm     93% 0.00 in SCT
23:30 64.1 °F 62.0 °F 29.78 in Calm     93% 0.00 in SCT
23:45 63.9 °F 61.8 °F 29.78 in Calm     93% 0.00 in SCT
Piedmont Bend
Compliments of Weather Underground - 4 mb